Time;durP1;ratioP1;P1;durP2;ratioP2;P2;SDS_P1;SDS_P2;PMS_P1;PMS_P2;Temp;Humidity;BMP_temperature;BMP_pressure;BME280_temperature;BME280_humidity;BME280_pressure;Samples;Min_cycle;Max_cycle;Signal;HPM_P1;HPM_P2
2023/11/15 00:01:25;;;;;;;1.17;1.15;;;9.50;99.90;;;;;;4921442;29;20215;-81
2023/11/15 00:03:52;;;;;;;1.25;1.25;;;9.50;99.90;;;;;;4923567;29;20521;-81
2023/11/15 00:06:19;;;;;;;0.50;0.50;;;9.60;99.90;;;;;;4922343;29;20525;-81
2023/11/15 00:08:47;;;;;;;0.70;0.70;;;9.50;99.90;;;;;;4925616;29;20240;-82
2023/11/15 00:11:18;;;;;;;1.90;1.80;;;9.70;99.90;;;;;;4936116;29;20272;-80
2023/11/15 00:13:50;;;;;;;0.95;0.80;;;9.60;99.90;;;;;;4920523;29;20201;-80
2023/11/15 00:16:18;;;;;;;0.50;0.50;;;9.50;99.90;;;;;;4921666;29;20209;-81
2023/11/15 00:18:46;;;;;;;4.88;0.90;;;9.40;99.90;;;;;;4921861;29;20213;-83
2023/11/15 00:21:14;;;;;;;0.50;0.50;;;9.40;99.90;;;;;;4921412;29;20220;-82
2023/11/15 00:23:41;;;;;;;1.15;0.90;;;9.50;99.90;;;;;;4921336;29;20295;-81
2023/11/15 00:26:09;;;;;;;0.95;0.95;;;9.40;99.90;;;;;;4920121;29;20275;-79
2023/11/15 00:28:39;;;;;;;1.27;1.23;;;9.30;99.90;;;;;;4922296;29;20270;-79
2023/11/15 00:31:07;;;;;;;1.55;1.45;;;9.30;99.90;;;;;;4933179;29;20213;-80
2023/11/15 00:33:34;;;;;;;0.60;0.60;;;9.10;99.90;;;;;;4921680;29;20250;-79
2023/11/15 00:36:02;;;;;;;0.50;0.50;;;9.10;99.90;;;;;;4920858;29;20209;-78
2023/11/15 00:38:29;;;;;;;0.65;0.65;;;9.20;99.90;;;;;;4922688;29;20434;-81
2023/11/15 00:40:57;;;;;;;0.90;0.88;;;9.10;99.90;;;;;;4926158;29;20209;-80
2023/11/15 00:43:25;;;;;;;1.73;1.60;;;9.10;99.90;;;;;;4922960;29;20236;-79
2023/11/15 00:45:52;;;;;;;0.50;0.50;;;9.10;99.90;;;;;;4920868;29;20224;-79
2023/11/15 00:48:19;;;;;;;0.50;0.50;;;8.90;99.90;;;;;;4924024;29;20299;-85
2023/11/15 00:50:46;;;;;;;0.45;0.45;;;9.00;99.90;;;;;;4941240;29;20550;-86
2023/11/15 00:53:13;;;;;;;1.33;1.23;;;8.90;99.90;;;;;;4922849;29;20217;-79
2023/11/15 00:55:40;;;;;;;0.40;0.40;;;9.00;99.90;;;;;;4926007;29;20300;-79
2023/11/15 00:58:09;;;;;;;0.75;0.75;;;9.00;99.90;;;;;;4930577;29;20225;-80
2023/11/15 01:00:44;;;;;;;1.25;1.17;;;8.90;99.90;;;;;;4926978;29;20212;-79
2023/11/15 01:03:15;;;;;;;0.40;0.40;;;8.90;99.90;;;;;;4929741;29;20259;-78
2023/11/15 01:05:42;;;;;;;0.40;0.40;;;8.90;99.90;;;;;;4929162;29;20217;-86
2023/11/15 01:08:09;;;;;;;0.40;0.40;;;8.80;99.90;;;;;;4925997;29;20255;-81
2023/11/15 01:10:37;;;;;;;1.80;1.70;;;8.80;99.90;;;;;;4927792;29;20228;-81
2023/11/15 01:13:05;;;;;;;0.70;0.70;;;8.80;99.90;;;;;;4928218;29;20204;-84
2023/11/15 01:15:33;;;;;;;0.88;0.88;;;8.70;99.90;;;;;;4930569;29;20316;-79
2023/11/15 01:18:07;;;;;;;0.93;0.93;;;8.70;99.90;;;;;;4927632;29;20216;-81
2023/11/15 01:20:35;;;;;;;0.40;0.40;;;8.60;99.90;;;;;;4927342;29;20208;-87
2023/11/15 01:23:05;;;;;;;0.40;0.40;;;8.70;99.90;;;;;;4929706;29;20227;-86
2023/11/15 01:25:32;;;;;;;0.40;0.40;;;8.70;99.90;;;;;;4932198;29;20281;-83
2023/11/15 01:28:00;;;;;;;0.40;0.40;;;8.60;99.90;;;;;;4926049;29;20603;-84
2023/11/15 01:30:28;;;;;;;0.40;0.40;;;8.60;99.90;;;;;;4928877;29;20236;-83
2023/11/15 01:32:55;;;;;;;0.50;0.50;;;8.60;99.90;;;;;;4925280;29;20248;-84
2023/11/15 01:35:23;;;;;;;0.40;0.40;;;8.60;99.90;;;;;;4926061;29;20715;-84
2023/11/15 01:37:51;;;;;;;0.40;0.40;;;8.60;99.90;;;;;;4929240;29;20255;-85
2023/11/15 01:40:20;;;;;;;0.68;0.68;;;8.50;99.90;;;;;;4919559;29;20521;-81
2023/11/15 01:42:48;;;;;;;0.60;0.60;;;8.50;99.90;;;;;;4934134;29;20265;-83
2023/11/15 01:45:16;;;;;;;0.40;0.40;;;8.50;99.90;;;;;;4926565;29;20217;-83
2023/11/15 01:47:43;;;;;;;0.50;0.50;;;8.50;99.90;;;;;;4925971;29;20612;-84
2023/11/15 01:50:13;;;;;;;0.40;0.40;;;8.50;99.90;;;;;;4930497;29;20769;-82
2023/11/15 01:52:46;;;;;;;0.40;0.40;;;8.50;99.90;;;;;;4932597;29;20268;-85
2023/11/15 01:55:21;;;;;;;0.60;0.60;;;8.40;99.90;;;;;;4925647;29;20280;-80
2023/11/15 01:57:49;;;;;;;0.40;0.40;;;8.50;99.90;;;;;;4927106;29;20283;-83
2023/11/15 02:00:18;;;;;;;0.40;0.40;;;8.40;99.90;;;;;;4925607;29;20217;-82
2023/11/15 02:02:44;;;;;;;0.40;0.40;;;8.40;99.90;;;;;;4925205;29;20548;-82
2023/11/15 02:05:13;;;;;;;0.80;0.80;;;8.40;99.90;;;;;;4923803;29;20216;-83
2023/11/15 02:07:42;;;;;;;0.50;0.50;;;8.40;99.90;;;;;;4923930;29;20537;-83
2023/11/15 02:10:13;;;;;;;0.40;0.40;;;8.40;99.90;;;;;;4923830;29;20208;-83
2023/11/15 02:12:40;;;;;;;0.40;0.40;;;8.30;99.90;;;;;;4924087;29;20256;-86
2023/11/15 02:15:07;;;;;;;0.40;0.40;;;8.40;99.90;;;;;;4924124;29;20248;-85
2023/11/15 02:17:35;;;;;;;0.40;0.40;;;8.30;99.90;;;;;;4925134;29;20261;-82
2023/11/15 02:20:05;;;;;;;0.60;0.60;;;8.30;99.90;;;;;;4929402;29;20437;-85
2023/11/15 02:22:33;;;;;;;0.40;0.40;;;8.30;99.90;;;;;;4924701;29;20271;-84
2023/11/15 02:25:00;;;;;;;0.40;0.40;;;8.30;99.90;;;;;;4924618;29;20217;-85
2023/11/15 02:27:27;;;;;;;0.40;0.40;;;8.30;99.90;;;;;;4931410;29;20267;-85
2023/11/15 02:29:54;;;;;;;0.40;0.40;;;8.30;99.90;;;;;;4933444;29;20283;-85
2023/11/15 02:32:21;;;;;;;0.40;0.40;;;8.30;99.90;;;;;;4925452;29;20212;-83
2023/11/15 02:34:48;;;;;;;0.85;0.85;;;8.30;99.90;;;;;;4939347;29;20208;-86
2023/11/15 02:37:15;;;;;;;0.40;0.40;;;8.20;99.90;;;;;;4924434;29;20215;-84
2023/11/15 02:39:43;;;;;;;0.40;0.40;;;8.30;99.90;;;;;;4929785;29;20216;-84
2023/11/15 02:42:10;;;;;;;0.40;0.40;;;8.10;99.90;;;;;;4942533;28;20192;-88
2023/11/15 02:44:37;;;;;;;0.50;0.50;;;8.20;99.90;;;;;;4959880;28;20221;-86
2023/11/15 02:47:04;;;;;;;0.30;0.30;;;8.30;99.90;;;;;;4939486;28;20201;-86
2023/11/15 02:49:32;;;;;;;0.40;0.40;;;8.20;99.90;;;;;;4938789;28;20208;-89
2023/11/15 02:51:59;;;;;;;0.63;0.63;;;8.20;99.90;;;;;;4934391;29;20287;-89
2023/11/15 02:54:26;;;;;;;0.32;0.32;;;8.20;99.90;;;;;;4931372;29;20205;-88
2023/11/15 02:56:53;;;;;;;0.40;0.40;;;8.20;99.90;;;;;;4939837;28;20209;-88
2023/11/15 02:59:20;;;;;;;0.40;0.40;;;8.20;99.90;;;;;;4939257;28;20221;-88
2023/11/15 03:01:50;;;;;;;0.40;0.40;;;8.20;99.90;;;;;;4937902;29;20203;-87
2023/11/15 03:04:17;;;;;;;0.40;0.40;;;8.20;99.90;;;;;;4950378;29;20236;-88
2023/11/15 03:06:44;;;;;;;0.40;0.40;;;8.20;99.90;;;;;;4927411;29;20197;-89
2023/11/15 03:09:13;;;;;;;0.90;0.90;;;8.20;99.90;;;;;;4942670;29;20225;-89
2023/11/15 03:11:40;;;;;;;0.52;0.52;;;8.20;99.90;;;;;;4926169;29;20205;-89
2023/11/15 03:14:08;;;;;;;0.40;0.40;;;8.20;99.90;;;;;;4927881;29;20690;-88
2023/11/15 03:16:35;;;;;;;0.90;0.90;;;8.20;99.90;;;;;;4926845;29;20232;-89
2023/11/15 03:19:02;;;;;;;0.75;0.70;;;8.20;99.90;;;;;;4930936;29;20197;-88
2023/11/15 03:21:30;;;;;;;0.52;0.52;;;8.20;99.90;;;;;;4944029;28;20269;-87
2023/11/15 03:26:32;;;;;;;0.40;0.40;;;8.20;99.90;;;;;;5530332;23;20351;-88
2023/11/15 03:28:59;;;;;;;0.50;0.50;;;8.20;99.90;;;;;;5851844;23;20403;-91
2023/11/15 03:31:26;;;;;;;0.50;0.50;;;8.20;99.90;;;;;;4957999;28;20224;-88
2023/11/15 03:36:35;;;;;;;0.40;0.40;;;8.20;99.90;;;;;;5601638;23;20302;-88
2023/11/15 03:39:02;;;;;;;0.50;0.50;;;8.20;99.90;;;;;;5173133;23;20242;-89
2023/11/15 03:41:29;;;;;;;0.60;0.60;;;8.20;99.90;;;;;;4952617;29;20188;-82
2023/11/15 03:43:56;;;;;;;0.40;0.40;;;8.30;99.90;;;;;;4946958;29;20255;-87
2023/11/15 03:46:24;;;;;;;0.40;0.40;;;8.20;99.90;;;;;;4946891;28;20284;-85
2023/11/15 03:48:51;;;;;;;0.77;0.77;;;8.20;99.90;;;;;;4945749;29;20228;-84
2023/11/15 03:51:18;;;;;;;0.50;0.50;;;8.20;99.90;;;;;;4958087;28;20220;-84
2023/11/15 03:53:45;;;;;;;0.52;0.52;;;8.20;99.90;;;;;;4948260;29;20292;-83
2023/11/15 03:56:12;;;;;;;0.85;0.85;;;8.20;99.90;;;;;;4929260;29;20216;-83
2023/11/15 03:58:40;;;;;;;0.40;0.40;;;8.20;99.90;;;;;;4942893;29;20204;-82
2023/11/15 04:01:08;;;;;;;1.83;1.73;;;8.20;99.90;;;;;;4940321;29;20239;-82
2023/11/15 04:03:35;;;;;;;0.30;0.30;;;8.20;99.90;;;;;;4940844;29;20223;-82
2023/11/15 04:06:04;;;;;;;0.65;0.65;;;8.20;99.90;;;;;;4940897;29;20227;-85
2023/11/15 04:08:30;;;;;;;0.55;0.55;;;8.30;99.90;;;;;;4940386;29;20253;-82
2023/11/15 04:10:58;;;;;;;0.57;0.57;;;8.30;99.90;;;;;;4939482;29;20212;-83
2023/11/15 04:13:25;;;;;;;0.30;0.30;;;8.30;99.90;;;;;;4940167;29;20250;-84
2023/11/15 04:15:53;;;;;;;0.30;0.30;;;8.30;99.90;;;;;;4946038;28;20208;-85
2023/11/15 04:18:21;;;;;;;0.30;0.30;;;8.30;99.90;;;;;;4956126;28;20194;-82
2023/11/15 04:20:48;;;;;;;1.35;1.27;;;8.20;99.90;;;;;;4949125;28;20212;-84
2023/11/15 04:23:15;;;;;;;0.30;0.30;;;8.20;99.90;;;;;;4943259;29;20543;-83
2023/11/15 04:25:42;;;;;;;0.40;0.40;;;8.20;99.90;;;;;;4947995;28;20216;-84
2023/11/15 04:28:12;;;;;;;0.40;0.40;;;8.20;99.90;;;;;;4949453;29;20212;-82
2023/11/15 04:30:39;;;;;;;0.40;0.40;;;8.20;99.90;;;;;;4945806;29;20247;-84
2023/11/15 04:33:06;;;;;;;0.40;0.40;;;8.20;99.90;;;;;;4953363;28;20219;-82
2023/11/15 04:35:33;;;;;;;0.40;0.40;;;8.10;99.90;;;;;;4944542;29;20216;-85
2023/11/15 04:38:05;;;;;;;0.40;0.40;;;8.10;99.90;;;;;;4946753;29;20260;-90
2023/11/15 04:40:32;;;;;;;0.50;0.50;;;8.10;99.90;;;;;;4947427;29;20296;-88
2023/11/15 04:42:59;;;;;;;0.40;0.40;;;8.10;99.90;;;;;;4999239;23;20262;-86
2023/11/15 04:45:26;;;;;;;0.77;0.77;;;8.00;99.90;;;;;;4968534;28;20287;-86
2023/11/15 04:47:53;;;;;;;0.40;0.40;;;8.20;99.90;;;;;;4969593;28;20227;-88
2023/11/15 04:50:22;;;;;;;0.40;0.40;;;8.20;99.90;;;;;;4965186;28;20215;-87
2023/11/15 04:52:49;;;;;;;0.40;0.40;;;8.10;99.90;;;;;;4964640;28;20266;-89
2023/11/15 04:55:19;;;;;;;0.68;0.68;;;8.20;99.90;;;;;;4962676;28;20283;-87
2023/11/15 04:57:47;;;;;;;2.35;1.38;;;8.10;99.90;;;;;;4977336;28;20203;-86
2023/11/15 05:00:15;;;;;;;0.30;0.30;;;8.20;99.90;;;;;;4961844;28;20517;-84
2023/11/15 05:02:42;;;;;;;0.40;0.40;;;8.10;99.90;;;;;;4966713;28;20268;-87
2023/11/15 05:05:10;;;;;;;0.30;0.30;;;8.10;99.90;;;;;;5090521;23;20243;-87
2023/11/15 05:07:38;;;;;;;0.30;0.30;;;8.20;99.90;;;;;;4990622;23;20228;-88
2023/11/15 05:10:06;;;;;;;0.85;0.85;;;8.10;99.90;;;;;;5072168;23;20227;-89
2023/11/15 05:23:13;;;;;;;0.40;0.40;;;8.20;99.90;;;;;;6049729;22;1879450;-85
2023/11/15 05:31:05;;;;;;;1.23;1.23;;;8.30;99.90;;;;;;6016385;23;21231;-87
2023/11/15 05:38:49;;;;;;;0.50;0.50;;;8.30;99.90;;;;;;6106996;23;20611;-85
2023/11/15 05:41:16;;;;;;;0.70;0.70;;;8.20;99.90;;;;;;6133454;23;20261;-88
2023/11/15 05:43:43;;;;;;;0.30;0.30;;;8.10;99.90;;;;;;6156856;23;20213;-86
2023/11/15 05:51:35;;;;;;;2.25;1.42;;;8.20;99.90;;;;;;6028266;23;20222;-82
2023/11/15 05:56:37;;;;;;;0.30;0.30;;;8.20;99.90;;;;;;6112531;23;20435;-87
2023/11/15 05:59:04;;;;;;;0.40;0.40;;;8.20;99.90;;;;;;6124715;23;20198;-85
2023/11/15 06:01:36;;;;;;;1.02;1.02;;;8.00;99.90;;;;;;6099327;23;20209;-86
2023/11/15 06:04:04;;;;;;;0.40;0.40;;;8.20;99.90;;;;;;6094732;23;20219;-88
2023/11/15 06:06:31;;;;;;;0.40;0.40;;;8.20;99.90;;;;;;6122341;23;20205;-88
2023/11/15 06:08:58;;;;;;;0.85;0.82;;;8.20;99.90;;;;;;6147388;23;20213;-85
2023/11/15 06:11:35;;;;;;;0.30;0.30;;;8.20;99.90;;;;;;6128718;23;20213;-86
2023/11/15 06:14:02;;;;;;;1.95;0.80;;;8.40;99.90;;;;;;6081338;23;20749;-87
2023/11/15 06:21:47;;;;;;;0.40;0.40;;;8.30;99.90;;;;;;6144581;23;20261;-82
2023/11/15 06:24:13;;;;;;;0.63;0.63;;;8.40;99.90;;;;;;6181705;23;20169;-83
2023/11/15 06:26:41;;;;;;;0.32;0.32;;;8.20;99.90;;;;;;6183306;23;20169;-84
2023/11/15 06:29:09;;;;;;;0.40;0.40;;;8.40;99.90;;;;;;6183841;23;20169;-83
2023/11/15 06:31:37;;;;;;;0.38;0.38;;;8.40;99.90;;;;;;6183235;23;20186;-86
2023/11/15 06:34:05;;;;;;;0.30;0.30;;;8.40;99.90;;;;;;6178878;23;20190;-87
2023/11/15 06:36:36;;;;;;;1.52;1.50;;;8.40;99.90;;;;;;6179297;23;20218;-83
2023/11/15 06:39:05;;;;;;;0.40;0.40;;;8.40;99.90;;;;;;6113963;23;20206;-84
2023/11/15 06:41:38;;;;;;;0.30;0.30;;;8.40;99.90;;;;;;6141528;23;20248;-81
2023/11/15 06:44:09;;;;;;;0.50;0.50;;;8.50;99.90;;;;;;6149498;23;20186;-84
2023/11/15 06:46:38;;;;;;;0.40;0.40;;;8.40;99.90;;;;;;6144734;23;20204;-89
2023/11/15 06:49:06;;;;;;;0.30;0.30;;;8.40;99.90;;;;;;6143109;23;20245;-87
2023/11/15 06:51:39;;;;;;;1.50;1.05;;;8.40;99.90;;;;;;6141198;23;20201;-86
2023/11/15 06:54:06;;;;;;;0.80;0.77;;;8.50;99.90;;;;;;6143458;23;20278;-86
2023/11/15 06:56:34;;;;;;;0.30;0.30;;;8.60;99.90;;;;;;6147294;23;20179;-87
2023/11/15 06:59:02;;;;;;;0.30;0.30;;;8.60;99.90;;;;;;6113053;23;20207;-83
2023/11/15 07:01:30;;;;;;;0.30;0.30;;;8.50;99.90;;;;;;6112805;23;20163;-89
2023/11/15 07:03:58;;;;;;;0.40;0.40;;;8.50;99.90;;;;;;6086701;23;20183;-85
2023/11/15 07:06:27;;;;;;;0.40;0.40;;;8.50;99.90;;;;;;6109613;23;20205;-84
2023/11/15 07:08:56;;;;;;;0.30;0.30;;;8.50;99.90;;;;;;6084789;23;20175;-88
2023/11/15 07:11:23;;;;;;;0.30;0.30;;;8.50;99.90;;;;;;6110167;23;20187;-80
2023/11/15 07:13:50;;;;;;;0.50;0.50;;;8.60;99.90;;;;;;6118823;23;20174;-81
2023/11/15 07:16:19;;;;;;;0.30;0.30;;;8.60;99.90;;;;;;6124434;23;20177;-86
2023/11/15 07:18:47;;;;;;;0.40;0.40;;;8.60;99.90;;;;;;6124084;23;20167;-83
2023/11/15 07:21:15;;;;;;;0.30;0.30;;;8.60;99.90;;;;;;6123029;23;20234;-84
2023/11/15 07:23:42;;;;;;;0.30;0.30;;;8.60;99.90;;;;;;6113790;23;20194;-85
2023/11/15 07:26:10;;;;;;;0.50;0.50;;;8.60;99.90;;;;;;6083468;23;20230;-87
2023/11/15 07:28:41;;;;;;;0.40;0.40;;;8.70;99.90;;;;;;6111519;23;20187;-87
2023/11/15 07:31:13;;;;;;;0.30;0.30;;;8.70;99.90;;;;;;6109063;23;20503;-87
2023/11/15 07:33:40;;;;;;;0.40;0.40;;;8.80;99.90;;;;;;6108757;23;20175;-82
2023/11/15 07:36:09;;;;;;;0.88;0.88;;;8.80;99.90;;;;;;6108946;23;20214;-86
2023/11/15 07:38:36;;;;;;;0.40;0.40;;;8.80;99.90;;;;;;6110114;23;20330;-83
2023/11/15 07:41:03;;;;;;;0.30;0.30;;;8.80;99.90;;;;;;6089318;23;20174;-88
2023/11/15 07:43:30;;;;;;;0.50;0.50;;;8.90;99.90;;;;;;6094943;23;20183;-87
2023/11/15 07:45:57;;;;;;;1.08;0.98;;;8.90;99.90;;;;;;6117182;23;20187;-85
2023/11/15 07:48:25;;;;;;;0.30;0.30;;;8.90;99.90;;;;;;6112182;23;20183;-84
2023/11/15 07:50:52;;;;;;;0.63;0.63;;;9.00;99.90;;;;;;6110486;23;20171;-85
2023/11/15 07:53:20;;;;;;;1.70;1.33;;;9.00;99.90;;;;;;6116128;23;20230;-85
2023/11/15 07:55:47;;;;;;;0.40;0.40;;;9.10;99.90;;;;;;6121533;23;20169;-88
2023/11/15 08:00:50;;;;;;;1.95;1.85;;;9.20;99.90;;;;;;6137461;23;20190;-88
2023/11/15 08:03:19;;;;;;;0.52;0.52;;;9.20;99.90;;;;;;6145530;23;20170;-88
2023/11/15 08:05:47;;;;;;;0.70;0.70;;;9.40;99.90;;;;;;6105536;23;20221;-91
2023/11/15 08:08:14;;;;;;;0.40;0.40;;;9.40;99.90;;;;;;6146387;23;20175;-86
2023/11/15 08:10:47;;;;;;;0.40;0.40;;;9.50;99.90;;;;;;6066225;23;20279;-85
2023/11/15 08:13:14;;;;;;;0.40;0.40;;;9.30;99.90;;;;;;6131633;23;20202;-88
2023/11/15 08:15:42;;;;;;;0.40;0.40;;;9.30;99.90;;;;;;6113368;23;20271;-89
2023/11/15 08:20:52;;;;;;;0.40;0.40;;;9.30;99.90;;;;;;6106736;23;20424;-88
2023/11/15 08:26:02;;;;;;;0.50;0.50;;;9.30;99.90;;;;;;6080719;23;20202;-84
2023/11/15 08:28:32;;;;;;;0.40;0.40;;;9.30;99.90;;;;;;6120744;23;20497;-85
2023/11/15 08:31:00;;;;;;;1.25;1.17;;;9.30;99.90;;;;;;6172107;23;20181;-89
2023/11/15 08:33:27;;;;;;;0.60;0.60;;;9.30;99.90;;;;;;6172149;23;20204;-89
2023/11/15 08:35:54;;;;;;;0.85;0.85;;;9.10;99.90;;;;;;6146184;23;20253;-87
2023/11/15 08:38:24;;;;;;;0.40;0.40;;;9.30;99.90;;;;;;6170813;23;20224;-90
2023/11/15 08:40:52;;;;;;;0.70;0.68;;;9.20;99.90;;;;;;6141654;23;20230;-87
2023/11/15 08:43:19;;;;;;;0.40;0.40;;;9.60;99.90;;;;;;6148863;23;20209;-86
2023/11/15 08:45:46;;;;;;;0.40;0.40;;;9.50;99.90;;;;;;6141563;23;20185;-86
2023/11/15 08:48:19;;;;;;;0.40;0.40;;;9.40;99.90;;;;;;6142014;23;20169;-85
2023/11/15 08:50:47;;;;;;;0.40;0.40;;;9.50;99.90;;;;;;6140550;23;20166;-86
2023/11/15 08:55:51;;;;;;;0.60;0.60;;;9.40;99.90;;;;;;6085347;23;20226;-85
2023/11/15 08:58:18;;;;;;;0.55;0.55;;;9.30;99.90;;;;;;6083409;23;20223;-88
2023/11/15 09:00:49;;;;;;;0.60;0.60;;;9.40;99.90;;;;;;6059691;23;20164;-85
2023/11/15 09:03:16;;;;;;;0.40;0.40;;;9.40;99.90;;;;;;6085141;23;20175;-88
2023/11/15 09:05:44;;;;;;;0.40;0.40;;;9.40;99.90;;;;;;6083661;23;20296;-86
2023/11/15 09:08:14;;;;;;;0.40;0.40;;;9.50;99.90;;;;;;6081235;23;20210;-87
2023/11/15 09:10:41;;;;;;;0.75;0.75;;;9.70;99.90;;;;;;6081096;23;20207;-84
2023/11/15 09:13:08;;;;;;;0.40;0.40;;;9.70;99.90;;;;;;6080512;23;20503;-84
2023/11/15 09:15:35;;;;;;;0.40;0.40;;;9.70;99.90;;;;;;6084675;23;20236;-86
2023/11/15 09:18:06;;;;;;;0.40;0.40;;;9.60;99.90;;;;;;6087382;23;20188;-86
2023/11/15 09:20:34;;;;;;;0.40;0.40;;;9.80;99.90;;;;;;6089853;23;20279;-85
2023/11/15 09:23:02;;;;;;;0.40;0.40;;;9.60;99.90;;;;;;6115760;23;20164;-85
2023/11/15 09:25:35;;;;;;;0.40;0.40;;;9.50;99.90;;;;;;6114537;23;20479;-85
2023/11/15 09:28:03;;;;;;;0.50;0.50;;;9.40;99.90;;;;;;6108933;23;20174;-86
2023/11/15 09:30:31;;;;;;;3.72;1.67;;;9.30;99.90;;;;;;6108074;23;20214;-89
2023/11/15 09:32:59;;;;;;;0.50;0.50;;;9.30;99.90;;;;;;6111804;23;20206;-88
2023/11/15 09:35:31;;;;;;;0.50;0.50;;;9.20;99.90;;;;;;6113888;23;20179;-87
2023/11/15 09:37:58;;;;;;;0.93;0.93;;;9.10;99.90;;;;;;6114198;23;20222;-84
2023/11/15 09:45:41;;;;;;;0.45;0.45;;;9.60;99.90;;;;;;6058953;23;20200;-86
2023/11/15 09:48:10;;;;;;;0.75;0.75;;;10.10;99.90;;;;;;6057530;23;20191;-87
2023/11/15 09:50:37;;;;;;;0.40;0.40;;;10.20;99.90;;;;;;6029100;23;20713;-87
2023/11/15 09:53:05;;;;;;;0.40;0.40;;;10.00;99.90;;;;;;6033310;23;20236;-87
2023/11/15 09:55:36;;;;;;;0.50;0.50;;;9.60;99.90;;;;;;6052714;23;20191;-86
2023/11/15 09:58:03;;;;;;;0.40;0.40;;;9.60;99.90;;;;;;6026900;23;20469;-84
2023/11/15 10:00:31;;;;;;;0.50;0.50;;;9.60;99.90;;;;;;6030538;23;20214;-87
2023/11/15 10:03:00;;;;;;;0.50;0.50;;;9.60;99.90;;;;;;6029439;23;20184;-86
2023/11/15 10:05:28;;;;;;;0.85;0.85;;;9.60;99.90;;;;;;6057349;23;20176;-88
2023/11/15 10:08:10;;;;;;;0.77;0.75;;;9.60;99.90;;;;;;6056886;23;20176;-88
2023/11/15 10:10:38;;;;;;;0.40;0.40;;;9.60;99.90;;;;;;6056738;23;20160;-88
2023/11/15 10:13:21;;;;;;;0.40;0.40;;;9.60;99.90;;;;;;6131991;23;20212;-86
2023/11/15 10:15:47;;;;;;;0.40;0.40;;;9.60;99.90;;;;;;6142322;23;20239;-86
2023/11/15 10:18:32;;;;;;;0.52;0.52;;;9.30;99.90;;;;;;6143667;23;20182;-85
2023/11/15 10:21:13;;;;;;;0.93;0.93;;;9.50;99.90;;;;;;6142825;23;20194;-86
2023/11/15 10:23:44;;;;;;;2.42;1.13;;;9.60;99.90;;;;;;6144485;23;20182;-85
2023/11/15 10:26:16;;;;;;;0.60;0.60;;;9.60;99.90;;;;;;6144269;23;20186;-87
2023/11/15 10:28:49;;;;;;;0.40;0.40;;;9.60;99.90;;;;;;6142181;23;20174;-87
2023/11/15 10:31:18;;;;;;;0.60;0.60;;;9.70;99.90;;;;;;6142970;23;20191;-87
2023/11/15 10:33:50;;;;;;;0.60;0.60;;;9.60;99.90;;;;;;6143125;23;20198;-86
2023/11/15 10:36:22;;;;;;;0.40;0.40;;;9.80;99.90;;;;;;6142727;23;20197;-86
2023/11/15 10:38:55;;;;;;;0.40;0.40;;;10.20;99.90;;;;;;6143430;23;20174;-85
2023/11/15 10:41:25;;;;;;;0.50;0.50;;;10.00;99.90;;;;;;6143470;23;20181;-86
2023/11/15 10:43:54;;;;;;;0.50;0.50;;;10.20;99.90;;;;;;6142413;23;20210;-86
2023/11/15 10:46:30;;;;;;;0.50;0.50;;;10.20;99.90;;;;;;6142832;23;20237;-85
2023/11/15 10:49:00;;;;;;;0.50;0.50;;;10.20;99.90;;;;;;6142434;23;20376;-87
2023/11/15 10:51:43;;;;;;;0.50;0.50;;;10.20;99.90;;;;;;6143032;23;20227;-87
2023/11/15 10:56:49;;;;;;;0.50;0.50;;;10.00;99.90;;;;;;6087619;23;20171;-88
2023/11/15 10:59:25;;;;;;;0.50;0.50;;;10.10;99.90;;;;;;6036691;23;20160;-88
2023/11/15 11:02:01;;;;;;;0.50;0.50;;;9.90;99.90;;;;;;6060963;23;20171;-86
2023/11/15 11:04:39;;;;;;;0.50;0.50;;;9.80;99.90;;;;;;6060926;23;20250;-88
2023/11/15 11:07:14;;;;;;;0.50;0.50;;;9.70;99.90;;;;;;6057747;23;20234;-86
2023/11/15 11:10:15;;;;;;;0.50;0.50;;;9.70;99.90;;;;;;6059781;23;20160;-85
2023/11/15 11:12:44;;;;;;;0.65;0.65;;;9.60;99.90;;;;;;6037713;23;20204;-86
2023/11/15 11:15:24;;;;;;;0.80;0.80;;;9.80;99.90;;;;;;6084395;23;20210;-87
2023/11/15 11:18:18;;;;;;;0.55;0.55;;;9.90;99.90;;;;;;6085156;23;20176;-88
2023/11/15 11:21:02;;;;;;;0.50;0.50;;;9.70;99.90;;;;;;6040744;23;20176;-86
2023/11/15 11:23:32;;;;;;;0.50;0.50;;;10.10;99.90;;;;;;6084023;23;20175;-86
2023/11/15 11:26:35;;;;;;;0.52;0.52;;;9.80;99.90;;;;;;6084514;23;20484;-85
2023/11/15 11:29:10;;;;;;;0.50;0.50;;;9.80;99.90;;;;;;6063445;23;20220;-86
2023/11/15 11:31:38;;;;;;;0.80;0.80;;;9.90;99.90;;;;;;6086703;23;20173;-86
2023/11/15 11:34:21;;;;;;;0.60;0.60;;;9.90;99.90;;;;;;6064555;23;20182;-86
2023/11/15 11:36:53;;;;;;;0.80;0.80;;;9.90;99.90;;;;;;6064213;23;20184;-85
2023/11/15 11:39:46;;;;;;;0.50;0.50;;;10.10;99.90;;;;;;6064363;23;20169;-87
2023/11/15 11:42:31;;;;;;;0.50;0.50;;;9.80;99.90;;;;;;6064050;23;20626;-87
2023/11/15 11:45:17;;;;;;;0.50;0.50;;;9.80;99.90;;;;;;6084949;23;20283;-85
2023/11/15 11:47:58;;;;;;;0.60;0.60;;;9.60;99.90;;;;;;6107631;23;20194;-86
2023/11/15 11:50:25;;;;;;;0.60;0.60;;;9.50;99.90;;;;;;6124040;23;20191;-84
2023/11/15 11:53:01;;;;;;;0.50;0.50;;;9.80;99.90;;;;;;6127355;23;20193;-86
2023/11/15 11:55:32;;;;;;;0.50;0.50;;;9.70;99.90;;;;;;6180242;23;20180;-87
2023/11/15 11:58:02;;;;;;;0.50;0.50;;;9.60;99.90;;;;;;6178067;23;20181;-87
2023/11/15 12:00:29;;;;;;;0.70;0.70;;;9.60;99.90;;;;;;6175908;23;20197;-87
2023/11/15 12:02:57;;;;;;;0.80;0.80;;;9.50;99.90;;;;;;6174223;23;20178;-86
2023/11/15 12:05:32;;;;;;;0.50;0.50;;;9.40;99.90;;;;;;6174704;23;20199;-85
2023/11/15 12:08:02;;;;;;;0.50;0.50;;;9.20;99.90;;;;;;6173964;23;20253;-86
2023/11/15 12:10:30;;;;;;;0.65;0.65;;;9.30;99.90;;;;;;6149153;23;20177;-89
2023/11/15 12:13:04;;;;;;;0.80;0.80;;;9.20;99.90;;;;;;6175115;23;20198;-88
2023/11/15 12:15:36;;;;;;;0.50;0.50;;;9.20;99.90;;;;;;6174790;23;20222;-88
2023/11/15 12:18:03;;;;;;;0.60;0.60;;;9.20;99.90;;;;;;6174921;23;20163;-87
2023/11/15 12:20:38;;;;;;;0.50;0.50;;;9.30;99.90;;;;;;6173798;23;20173;-87
2023/11/15 12:23:12;;;;;;;0.50;0.50;;;9.40;99.90;;;;;;6173341;23;20181;-85
2023/11/15 12:25:48;;;;;;;0.50;0.50;;;9.40;99.90;;;;;;6123030;23;20204;-89
2023/11/15 12:28:26;;;;;;;0.77;0.77;;;9.50;99.90;;;;;;6173909;23;20173;-86
2023/11/15 12:30:55;;;;;;;0.60;0.60;;;9.70;99.90;;;;;;6173869;23;20173;-87
2023/11/15 12:33:23;;;;;;;0.50;0.50;;;9.70;99.90;;;;;;6173628;23;20418;-85
2023/11/15 12:35:53;;;;;;;0.95;0.95;;;9.60;99.90;;;;;;6174714;23;20174;-86
2023/11/15 12:38:20;;;;;;;0.50;0.50;;;9.70;99.90;;;;;;6177526;23;20177;-87
2023/11/15 12:40:47;;;;;;;0.60;0.60;;;9.50;99.90;;;;;;6157463;23;20189;-86
2023/11/15 12:43:22;;;;;;;0.60;0.60;;;9.50;99.90;;;;;;6163992;23;20190;-85
2023/11/15 12:45:51;;;;;;;0.60;0.60;;;9.50;99.90;;;;;;6103201;23;20202;-86
2023/11/15 12:48:19;;;;;;;0.57;0.57;;;9.50;99.90;;;;;;6120516;23;20217;-87
2023/11/15 12:50:58;;;;;;;0.90;0.90;;;9.40;99.90;;;;;;6096054;23;20570;-85
2023/11/15 12:53:30;;;;;;;0.90;0.90;;;9.40;99.90;;;;;;6121280;23;20296;-85
2023/11/15 12:55:58;;;;;;;0.60;0.60;;;9.30;99.90;;;;;;6096239;23;20206;-87
2023/11/15 12:58:28;;;;;;;0.50;0.50;;;9.30;99.90;;;;;;6118729;23;20290;-86
2023/11/15 13:01:12;;;;;;;0.70;0.70;;;9.30;99.90;;;;;;6114483;23;20187;-86
2023/11/15 13:03:39;;;;;;;0.50;0.50;;;9.20;99.90;;;;;;6114308;23;20163;-85
2023/11/15 13:06:14;;;;;;;0.60;0.60;;;9.10;99.90;;;;;;6089492;23;20257;-86
2023/11/15 13:08:44;;;;;;;0.50;0.50;;;9.20;99.90;;;;;;6137850;23;20211;-85
2023/11/15 13:11:16;;;;;;;0.50;0.50;;;9.20;99.90;;;;;;6173800;23;20192;-88
2023/11/15 13:13:48;;;;;;;0.82;0.82;;;9.20;99.90;;;;;;6172441;23;20200;-86
2023/11/15 13:16:20;;;;;;;0.60;0.60;;;9.20;99.90;;;;;;6171902;23;20181;-85
2023/11/15 13:18:49;;;;;;;0.93;0.93;;;9.40;99.90;;;;;;6171773;23;20161;-86
2023/11/15 13:21:18;;;;;;;0.60;0.60;;;9.30;99.90;;;;;;6172836;23;20182;-88
2023/11/15 13:23:47;;;;;;;0.50;0.50;;;9.20;99.90;;;;;;6172383;23;20201;-88
2023/11/15 13:26:15;;;;;;;0.60;0.60;;;9.30;99.90;;;;;;6095601;23;20233;-88
2023/11/15 13:28:49;;;;;;;0.80;0.80;;;9.20;99.90;;;;;;6142819;23;20390;-88
2023/11/15 13:31:23;;;;;;;1.08;1.08;;;9.30;99.90;;;;;;6142936;23;20200;-88
2023/11/15 13:33:54;;;;;;;0.50;0.50;;;9.30;99.90;;;;;;6120013;23;20209;-85
2023/11/15 13:36:24;;;;;;;0.60;0.60;;;9.20;99.90;;;;;;6119658;23;20154;-86
2023/11/15 13:38:52;;;;;;;0.50;0.50;;;9.20;99.90;;;;;;6096849;23;20202;-87
2023/11/15 13:41:22;;;;;;;0.85;0.85;;;9.30;99.90;;;;;;6120732;23;20178;-86
2023/11/15 13:43:51;;;;;;;1.08;1.08;;;9.10;99.90;;;;;;6146136;23;20157;-88
2023/11/15 13:46:22;;;;;;;0.60;0.60;;;9.10;99.90;;;;;;6146632;23;20186;-86
2023/11/15 13:48:51;;;;;;;0.60;0.60;;;9.10;99.90;;;;;;6143963;23;20177;-86
2023/11/15 13:51:21;;;;;;;0.50;0.50;;;8.90;99.90;;;;;;6119767;23;20218;-86
2023/11/15 13:53:48;;;;;;;0.50;0.50;;;8.90;99.90;;;;;;6116644;23;20189;-85
2023/11/15 13:56:15;;;;;;;3.03;1.83;;;9.10;99.90;;;;;;6143548;23;20225;-87
2023/11/15 13:58:43;;;;;;;0.60;0.60;;;8.90;99.90;;;;;;6119080;23;20252;-90
2023/11/15 14:01:11;;;;;;;0.50;0.50;;;8.90;99.90;;;;;;6150073;23;20178;-83
2023/11/15 14:03:38;;;;;;;0.50;0.50;;;8.80;99.90;;;;;;6151221;23;20171;-87
2023/11/15 14:06:12;;;;;;;0.50;0.50;;;9.00;99.90;;;;;;6147426;23;20227;-87
2023/11/15 14:08:43;;;;;;;0.50;0.50;;;8.90;99.90;;;;;;6145969;23;20205;-88